Time;durP1;ratioP1;P1;durP2;ratioP2;P2;SDS_P1;SDS_P2;PMS_P1;PMS_P2;Temp;Humidity;BMP_temperature;BMP_pressure;BME280_temperature;BME280_humidity;BME280_pressure;Samples;Min_cycle;Max_cycle;Signal;HPM_P1;HPM_P2
2023/10/26 00:02:07;;;;;;;37.05;24.08;;;11.40;99.90;;;;;;5090645;28;20382;-70
2023/10/26 00:04:33;;;;;;;37.08;22.75;;;11.40;99.90;;;;;;5092155;28;20397;-70
2023/10/26 00:07:00;;;;;;;37.08;23.58;;;11.30;99.90;;;;;;5091853;28;20385;-70
2023/10/26 00:09:26;;;;;;;37.45;23.67;;;11.40;99.90;;;;;;5092899;28;20386;-70
2023/10/26 00:11:52;;;;;;;34.17;22.27;;;11.40;99.90;;;;;;5092736;28;20417;-71
2023/10/26 00:14:18;;;;;;;40.05;21.90;;;11.40;99.90;;;;;;5094639;28;20389;-69
2023/10/26 00:16:43;;;;;;;37.25;23.25;;;11.40;99.90;;;;;;5093382;28;20392;-70
2023/10/26 00:19:09;;;;;;;35.83;20.48;;;11.60;99.90;;;;;;5075637;28;20518;-70
2023/10/26 00:21:34;;;;;;;32.13;21.70;;;11.50;99.90;;;;;;5082051;28;20393;-70
2023/10/26 00:24:00;;;;;;;30.83;20.00;;;11.40;99.90;;;;;;5096871;28;20378;-70
2023/10/26 00:26:25;;;;;;;34.53;22.37;;;11.50;99.90;;;;;;5097528;28;20468;-70
2023/10/26 00:28:51;;;;;;;31.40;20.13;;;11.50;98.80;;;;;;5098490;28;20378;-70
2023/10/26 00:31:16;;;;;;;28.70;19.70;;;11.40;99.80;;;;;;5097283;28;20510;-70
2023/10/26 00:33:42;;;;;;;29.70;18.50;;;11.40;96.90;;;;;;5092300;28;20447;-70
2023/10/26 00:36:08;;;;;;;31.00;18.70;;;11.40;97.70;;;;;;5092222;28;20391;-70
2023/10/26 00:38:33;;;;;;;33.20;20.37;;;11.40;98.60;;;;;;5095038;28;20717;-70
2023/10/26 00:40:59;;;;;;;30.10;20.87;;;11.40;98.70;;;;;;5094028;28;20782;-71
2023/10/26 00:43:25;;;;;;;29.33;19.93;;;11.40;98.90;;;;;;5095008;28;20478;-70
2023/10/26 00:45:52;;;;;;;27.07;18.30;;;11.40;98.60;;;;;;5094862;28;20938;-70
2023/10/26 00:48:19;;;;;;;27.48;18.85;;;11.40;96.20;;;;;;5095811;28;20377;-71
2023/10/26 00:50:45;;;;;;;31.00;19.27;;;11.40;95.90;;;;;;5095214;28;20475;-71
2023/10/26 00:53:11;;;;;;;30.15;19.33;;;11.40;95.40;;;;;;5093978;28;20813;-71
2023/10/26 00:55:39;;;;;;;30.80;19.38;;;11.40;94.40;;;;;;5091679;28;20382;-71
2023/10/26 00:58:05;;;;;;;31.73;20.10;;;11.40;95.00;;;;;;5091946;28;20389;-71
2023/10/26 01:00:31;;;;;;;31.30;20.92;;;11.40;95.40;;;;;;5091777;28;20401;-70
2023/10/26 01:02:57;;;;;;;30.70;20.10;;;11.40;94.90;;;;;;5093394;28;20442;-71
2023/10/26 01:05:23;;;;;;;29.60;20.35;;;11.40;94.60;;;;;;5092282;28;20382;-71
2023/10/26 01:07:48;;;;;;;32.88;20.77;;;11.40;96.50;;;;;;5091859;28;20474;-71
2023/10/26 01:10:14;;;;;;;31.75;20.77;;;11.40;96.50;;;;;;5091398;28;20880;-71
2023/10/26 01:12:40;;;;;;;30.38;21.08;;;11.40;96.70;;;;;;5091017;28;20906;-71
2023/10/26 01:15:06;;;;;;;32.60;21.10;;;11.40;97.70;;;;;;5090982;28;20417;-71
2023/10/26 01:17:34;;;;;;;31.50;22.00;;;11.40;96.90;;;;;;5090991;28;20810;-71
2023/10/26 01:19:59;;;;;;;32.33;22.00;;;11.40;96.90;;;;;;5090548;28;20405;-70
2023/10/26 01:22:29;;;;;;;34.53;21.70;;;11.30;98.10;;;;;;5091219;28;20875;-70
2023/10/26 01:24:55;;;;;;;32.33;22.00;;;11.30;99.10;;;;;;5090542;28;20446;-70
2023/10/26 01:27:21;;;;;;;33.73;22.30;;;11.30;99.50;;;;;;5091086;28;20469;-70
2023/10/26 01:29:46;;;;;;;34.57;22.97;;;11.30;98.70;;;;;;5090695;28;20413;-70
2023/10/26 01:32:12;;;;;;;35.00;22.13;;;11.30;97.10;;;;;;5090828;28;20779;-70
2023/10/26 01:34:38;;;;;;;34.55;22.02;;;11.30;98.30;;;;;;5090151;28;20440;-70
2023/10/26 01:37:04;;;;;;;33.88;21.77;;;11.30;98.20;;;;;;5090745;28;20378;-71
2023/10/26 01:39:30;;;;;;;30.40;20.30;;;11.30;97.40;;;;;;5090655;28;21041;-70
2023/10/26 01:41:55;;;;;;;28.35;19.45;;;11.30;95.40;;;;;;5090681;28;20393;-70
2023/10/26 01:44:21;;;;;;;30.02;19.90;;;11.40;93.00;;;;;;5090501;28;20932;-70
2023/10/26 01:46:47;;;;;;;29.88;18.63;;;11.40;91.60;;;;;;5089151;28;20391;-70
2023/10/26 01:49:12;;;;;;;26.50;17.90;;;11.40;89.80;;;;;;5090586;28;20390;-71
2023/10/26 01:51:38;;;;;;;25.67;17.30;;;11.30;90.30;;;;;;5090532;28;20400;-70
2023/10/26 01:54:04;;;;;;;25.23;17.83;;;11.30;90.00;;;;;;5090435;28;20370;-70
2023/10/26 01:56:30;;;;;;;25.45;18.20;;;11.30;90.90;;;;;;5090435;28;20382;-70
2023/10/26 01:58:56;;;;;;;27.88;18.15;;;11.30;90.70;;;;;;5090375;28;20404;-70
2023/10/26 02:01:22;;;;;;;29.03;18.23;;;11.30;91.70;;;;;;5090295;28;20935;-70
2023/10/26 02:03:48;;;;;;;29.90;18.08;;;11.40;89.60;;;;;;5089758;28;20424;-70
2023/10/26 02:06:14;;;;;;;33.67;20.60;;;11.30;89.20;;;;;;5090187;28;20373;-70
2023/10/26 02:08:40;;;;;;;28.55;19.08;;;11.20;91.30;;;;;;5090780;28;20979;-70
2023/10/26 02:11:06;;;;;;;27.88;18.30;;;11.30;90.90;;;;;;5090247;28;20473;-70
2023/10/26 02:13:32;;;;;;;34.47;20.05;;;11.30;90.50;;;;;;5090094;28;20374;-70
2023/10/26 02:16:01;;;;;;;30.13;18.75;;;11.30;88.90;;;;;;5090166;28;20382;-70
2023/10/26 02:18:27;;;;;;;27.17;17.27;;;11.30;87.20;;;;;;5090263;28;20382;-70
2023/10/26 02:20:52;;;;;;;29.17;18.92;;;11.30;87.10;;;;;;5090215;28;20879;-70
2023/10/26 02:23:18;;;;;;;27.50;17.70;;;11.20;87.80;;;;;;5090175;28;20416;-70
2023/10/26 02:25:43;;;;;;;31.13;18.03;;;11.20;86.70;;;;;;5090160;28;20394;-70
2023/10/26 02:28:15;;;;;;;25.23;17.73;;;11.20;86.70;;;;;;5090161;28;20389;-69
2023/10/26 02:30:40;;;;;;;23.77;16.30;;;11.20;88.50;;;;;;5090260;28;20393;-70
2023/10/26 02:33:06;;;;;;;25.10;16.63;;;11.30;86.30;;;;;;5094121;28;20381;-70
2023/10/26 02:35:32;;;;;;;24.30;16.90;;;11.20;85.60;;;;;;5094198;28;20382;-70
2023/10/26 02:37:57;;;;;;;22.90;15.65;;;11.20;87.00;;;;;;5094406;28;20439;-70
2023/10/26 02:40:23;;;;;;;18.27;13.73;;;11.10;85.60;;;;;;5094304;28;20397;-70
2023/10/26 02:42:48;;;;;;;24.40;15.53;;;11.10;85.00;;;;;;5094102;28;20443;-70
2023/10/26 02:45:14;;;;;;;22.73;16.03;;;11.10;86.40;;;;;;5093973;28;20374;-69
2023/10/26 02:47:40;;;;;;;24.80;15.85;;;11.10;87.00;;;;;;5094218;28;20386;-69
2023/10/26 02:50:06;;;;;;;23.23;15.95;;;11.10;87.30;;;;;;5094225;28;20778;-69
2023/10/26 02:52:31;;;;;;;19.87;13.93;;;11.20;85.30;;;;;;5094162;28;20812;-69
2023/10/26 02:54:57;;;;;;;19.17;13.73;;;11.20;84.40;;;;;;5094034;28;20427;-69
2023/10/26 02:57:23;;;;;;;23.90;13.07;;;11.20;83.90;;;;;;5094114;28;20393;-69
2023/10/26 02:59:48;;;;;;;17.27;13.10;;;11.10;84.60;;;;;;5093645;28;20500;-69
2023/10/26 03:02:14;;;;;;;18.93;12.97;;;11.20;82.90;;;;;;5093768;28;20427;-69
2023/10/26 03:04:39;;;;;;;21.33;12.18;;;11.10;83.20;;;;;;5093461;28;20394;-69
2023/10/26 03:07:05;;;;;;;17.90;12.07;;;11.10;80.60;;;;;;5093662;28;20860;-69
2023/10/26 03:09:31;;;;;;;17.63;12.30;;;11.10;82.60;;;;;;5093563;28;20382;-69
2023/10/26 03:11:56;;;;;;;17.90;12.55;;;11.00;83.70;;;;;;5093488;28;20439;-69
2023/10/26 03:14:22;;;;;;;17.00;12.50;;;11.10;83.50;;;;;;5093362;28;20377;-69
2023/10/26 03:16:48;;;;;;;17.67;12.35;;;11.10;82.90;;;;;;5093199;28;20554;-69
2023/10/26 03:19:14;;;;;;;16.42;11.70;;;11.10;82.30;;;;;;5093345;28;20402;-69
2023/10/26 03:21:39;;;;;;;20.65;13.45;;;11.00;82.90;;;;;;5093397;28;20374;-69
2023/10/26 03:24:05;;;;;;;20.15;14.45;;;11.00;83.40;;;;;;5093243;28;20390;-69
2023/10/26 03:26:31;;;;;;;21.10;12.70;;;10.90;85.40;;;;;;5093173;28;20759;-69
2023/10/26 03:28:57;;;;;;;19.47;13.13;;;10.90;86.10;;;;;;5093475;28;20390;-69
2023/10/26 03:31:22;;;;;;;21.33;14.70;;;10.90;88.30;;;;;;5093182;28;20879;-70
2023/10/26 03:33:48;;;;;;;21.02;14.45;;;11.30;81.90;;;;;;5099110;22;20442;-75
2023/10/26 03:36:15;;;;;;;22.95;15.38;;;11.30;81.00;;;;;;5073517;28;20379;-73
2023/10/26 03:38:41;;;;;;;25.17;16.40;;;11.30;82.00;;;;;;5073646;28;20765;-73
2023/10/26 03:41:07;;;;;;;20.77;15.13;;;11.10;83.50;;;;;;5073340;28;20387;-73
2023/10/26 03:43:33;;;;;;;18.58;14.10;;;11.00;84.40;;;;;;5072971;28;20811;-73
2023/10/26 03:45:59;;;;;;;21.10;14.37;;;11.00;83.60;;;;;;5079514;28;20423;-74
2023/10/26 03:48:24;;;;;;;20.87;14.37;;;10.90;84.30;;;;;;5074934;28;20482;-74
2023/10/26 03:50:50;;;;;;;21.90;14.80;;;10.90;84.70;;;;;;5072818;28;20823;-74
2023/10/26 03:53:15;;;;;;;20.92;14.70;;;10.90;86.40;;;;;;5072783;28;20970;-74
2023/10/26 03:55:41;;;;;;;25.70;16.17;;;10.80;88.70;;;;;;5072786;28;20376;-74
2023/10/26 03:58:06;;;;;;;21.38;16.00;;;10.80;88.40;;;;;;5073381;28;20912;-74
2023/10/26 04:00:32;;;;;;;23.42;16.30;;;10.80;89.00;;;;;;5078042;28;20399;-74
2023/10/26 04:02:58;;;;;;;23.53;16.27;;;10.80;89.30;;;;;;5077084;28;20399;-74
2023/10/26 04:05:23;;;;;;;23.67;16.33;;;10.70;91.40;;;;;;5071706;28;20410;-74
2023/10/26 04:07:50;;;;;;;33.33;18.13;;;10.70;92.20;;;;;;5072691;28;20384;-74
2023/10/26 04:10:17;;;;;;;26.77;18.08;;;10.60;93.20;;;;;;5072468;28;20894;-74
2023/10/26 04:12:43;;;;;;;28.40;18.40;;;10.70;92.00;;;;;;5072624;28;20403;-74
2023/10/26 04:15:09;;;;;;;25.75;18.00;;;10.70;93.00;;;;;;5072467;28;20400;-74
2023/10/26 04:17:35;;;;;;;28.80;19.23;;;10.80;92.70;;;;;;5072508;28;20798;-74
2023/10/26 04:20:00;;;;;;;27.40;18.90;;;10.70;93.20;;;;;;5072155;28;20392;-74
2023/10/26 04:22:26;;;;;;;31.67;19.10;;;10.70;94.20;;;;;;5072307;28;20391;-74
2023/10/26 04:24:52;;;;;;;26.20;18.60;;;10.70;94.30;;;;;;5071968;28;20379;-74
2023/10/26 04:27:17;;;;;;;26.43;18.00;;;10.80;92.80;;;;;;5072224;28;20468;-74
2023/10/26 04:29:44;;;;;;;28.10;18.90;;;10.80;92.80;;;;;;5072522;28;20450;-74
2023/10/26 04:32:09;;;;;;;27.02;18.52;;;10.80;93.30;;;;;;5073150;28;20382;-74
2023/10/26 04:34:36;;;;;;;30.00;19.90;;;10.90;91.20;;;;;;5071586;28;20392;-74
2023/10/26 04:37:02;;;;;;;27.50;18.80;;;10.80;92.40;;;;;;5072418;28;20392;-74
2023/10/26 04:39:28;;;;;;;26.63;19.00;;;10.70;92.30;;;;;;5072350;28;20400;-74
2023/10/26 04:41:54;;;;;;;28.30;18.90;;;10.70;92.90;;;;;;5072314;28;20388;-74
2023/10/26 04:44:19;;;;;;;28.10;19.73;;;10.70;94.10;;;;;;5074304;28;20384;-76
2023/10/26 04:46:45;;;;;;;27.73;18.80;;;10.60;93.90;;;;;;5071827;28;20738;-75
2023/10/26 04:49:10;;;;;;;29.02;19.25;;;10.70;93.30;;;;;;5072647;28;20387;-74
2023/10/26 04:51:36;;;;;;;30.20;19.85;;;10.70;93.40;;;;;;5071900;28;20438;-74
2023/10/26 04:54:01;;;;;;;31.30;21.00;;;10.60;94.00;;;;;;5071075;28;20418;-74
2023/10/26 04:56:28;;;;;;;29.35;19.77;;;10.60;95.30;;;;;;5071835;28;20870;-75
2023/10/26 04:58:54;;;;;;;33.42;20.05;;;10.60;94.90;;;;;;5071680;28;20438;-74
2023/10/26 05:01:20;;;;;;;32.47;20.15;;;10.60;95.60;;;;;;5072012;28;20411;-72
2023/10/26 05:03:45;;;;;;;32.28;20.80;;;10.80;94.70;;;;;;5072577;28;20384;-74
2023/10/26 05:06:11;;;;;;;33.20;21.80;;;11.00;90.50;;;;;;5071252;28;20454;-74
2023/10/26 05:08:36;;;;;;;29.02;19.65;;;11.10;88.40;;;;;;5072214;28;20387;-74
2023/10/26 05:11:02;;;;;;;33.17;20.97;;;11.00;90.40;;;;;;5072371;28;20380;-73
2023/10/26 05:13:28;;;;;;;32.57;21.40;;;10.90;91.60;;;;;;5071171;28;20433;-74
2023/10/26 05:15:54;;;;;;;34.00;21.50;;;10.90;93.00;;;;;;5071371;28;20387;-73
2023/10/26 05:18:22;;;;;;;31.20;20.97;;;10.80;95.60;;;;;;5071562;28;20437;-75
2023/10/26 05:20:51;;;;;;;34.08;20.92;;;10.90;93.30;;;;;;5073425;28;20488;-75
2023/10/26 05:23:17;;;;;;;29.60;20.25;;;10.90;90.90;;;;;;5071501;28;20384;-73
2023/10/26 05:25:42;;;;;;;30.40;20.83;;;10.90;89.40;;;;;;5076065;28;20440;-75
2023/10/26 05:28:08;;;;;;;29.42;18.92;;;10.90;88.10;;;;;;5077551;28;20387;-74
2023/10/26 05:30:34;;;;;;;33.60;19.67;;;10.90;87.10;;;;;;5073989;28;20455;-75
2023/10/26 05:32:59;;;;;;;32.65;20.55;;;10.90;88.10;;;;;;5071380;28;20857;-74
2023/10/26 05:35:25;;;;;;;30.75;20.73;;;10.90;88.70;;;;;;5070997;28;20597;-74
2023/10/26 05:37:52;;;;;;;31.80;21.30;;;10.90;89.00;;;;;;5071099;28;20387;-73
2023/10/26 05:40:17;;;;;;;31.40;21.40;;;10.90;90.40;;;;;;5070942;28;20429;-73
2023/10/26 05:42:43;;;;;;;33.27;21.20;;;10.80;91.10;;;;;;5070494;28;20405;-75
2023/10/26 05:45:09;;;;;;;30.98;19.85;;;10.90;90.40;;;;;;5070580;28;20380;-74
2023/10/26 05:47:35;;;;;;;30.58;21.05;;;11.00;88.30;;;;;;5070865;28;20446;-74
2023/10/26 05:50:01;;;;;;;30.00;20.33;;;10.90;87.50;;;;;;5070597;28;20396;-73
2023/10/26 05:52:26;;;;;;;32.60;21.43;;;10.90;88.80;;;;;;5070792;28;20392;-74
2023/10/26 05:54:54;;;;;;;29.40;20.30;;;10.90;87.20;;;;;;5070519;28;20391;-75
2023/10/26 05:57:19;;;;;;;31.73;20.98;;;10.90;87.50;;;;;;5069983;28;20926;-75
2023/10/26 05:59:45;;;;;;;34.55;22.08;;;10.80;89.40;;;;;;5070928;28;20403;-75
2023/10/26 06:02:10;;;;;;;30.40;20.43;;;10.90;89.50;;;;;;5070450;28;20477;-72
2023/10/26 06:04:36;;;;;;;34.07;21.33;;;10.90;86.90;;;;;;5070167;28;20420;-73
2023/10/26 06:07:01;;;;;;;31.90;21.07;;;10.90;86.10;;;;;;5069173;28;20395;-75
2023/10/26 06:09:27;;;;;;;30.27;19.80;;;10.90;87.80;;;;;;5070586;28;20384;-74
2023/10/26 06:11:53;;;;;;;31.53;20.90;;;10.90;88.40;;;;;;5070425;28;20456;-73
2023/10/26 06:14:18;;;;;;;33.17;20.70;;;10.90;88.30;;;;;;5070099;28;20461;-74
2023/10/26 06:16:44;;;;;;;32.03;19.92;;;10.90;88.60;;;;;;5069919;28;20470;-73
2023/10/26 06:19:11;;;;;;;31.87;20.97;;;10.90;87.90;;;;;;5070184;28;20414;-76
2023/10/26 06:21:38;;;;;;;33.03;19.60;;;10.90;86.50;;;;;;5069325;28;20406;-73
2023/10/26 06:24:04;;;;;;;31.73;20.90;;;10.90;87.60;;;;;;5068833;28;20483;-74
2023/10/26 06:26:30;;;;;;;31.80;20.52;;;10.90;86.90;;;;;;5070055;28;20376;-74
2023/10/26 06:28:56;;;;;;;30.55;20.10;;;10.90;84.70;;;;;;5068766;28;20384;-74
2023/10/26 06:31:21;;;;;;;29.95;20.05;;;10.90;84.20;;;;;;5070183;28;20383;-74
2023/10/26 06:33:47;;;;;;;31.87;20.60;;;10.90;83.90;;;;;;5071007;28;20744;-75
2023/10/26 06:36:13;;;;;;;30.57;19.20;;;10.90;85.20;;;;;;5070689;28;20388;-74
2023/10/26 06:38:39;;;;;;;30.73;19.90;;;11.10;81.10;;;;;;5070259;28;20396;-74
2023/10/26 06:41:08;;;;;;;33.13;20.30;;;11.10;83.40;;;;;;5070375;28;20711;-74
2023/10/26 06:43:35;;;;;;;32.13;20.55;;;11.20;83.40;;;;;;5070291;28;20376;-73
2023/10/26 06:46:01;;;;;;;32.08;19.50;;;11.30;79.40;;;;;;5069892;28;20380;-74
2023/10/26 06:48:27;;;;;;;30.73;19.77;;;11.40;76.50;;;;;;5070166;28;20901;-73
2023/10/26 06:51:04;;;;;;;28.85;19.60;;;11.40;76.50;;;;;;5069804;28;20431;-74
2023/10/26 06:53:29;;;;;;;30.60;20.30;;;11.40;77.30;;;;;;5069945;28;20423;-72
2023/10/26 06:55:56;;;;;;;30.13;20.17;;;11.30;77.10;;;;;;5068886;28;20423;-73
2023/10/26 06:58:22;;;;;;;28.67;18.40;;;11.30;75.80;;;;;;5069927;28;20388;-74
2023/10/26 07:00:47;;;;;;;30.27;19.10;;;11.30;75.90;;;;;;5069534;28;21063;-74
2023/10/26 07:03:13;;;;;;;28.25;18.83;;;11.20;76.10;;;;;;5069525;28;20384;-73
2023/10/26 07:05:40;;;;;;;30.67;19.30;;;11.20;76.90;;;;;;5068946;28;20391;-74
2023/10/26 07:08:06;;;;;;;28.00;18.95;;;11.20;77.10;;;;;;5069575;28;20735;-73
2023/10/26 07:10:31;;;;;;;28.02;19.50;;;11.30;77.20;;;;;;5069972;28;20383;-73
2023/10/26 07:12:57;;;;;;;29.33;19.63;;;11.40;75.80;;;;;;5068325;28;20404;-74
2023/10/26 07:15:23;;;;;;;33.40;20.60;;;11.30;78.80;;;;;;5061939;28;20758;-74
2023/10/26 07:17:49;;;;;;;28.33;18.88;;;11.20;82.10;;;;;;5053349;28;20403;-74
2023/10/26 07:20:14;;;;;;;33.20;19.77;;;11.20;85.40;;;;;;5053291;28;20411;-73
2023/10/26 07:22:45;;;;;;;29.30;18.83;;;11.30;87.40;;;;;;5071282;28;20731;-73
2023/10/26 07:25:10;;;;;;;32.72;19.30;;;11.40;77.80;;;;;;5070242;28;20392;-73
2023/10/26 07:27:37;;;;;;;31.50;20.05;;;11.50;77.60;;;;;;5070425;28;20843;-72
2023/10/26 07:30:03;;;;;;;29.17;18.90;;;11.50;79.50;;;;;;5069287;28;20822;-74
2023/10/26 07:32:29;;;;;;;28.60;18.93;;;11.50;76.10;;;;;;5055584;28;20419;-74
2023/10/26 07:34:54;;;;;;;29.03;18.40;;;11.50;75.80;;;;;;5051015;28;20419;-74
2023/10/26 07:37:20;;;;;;;27.93;17.20;;;11.70;72.00;;;;;;5071621;28;20376;-74
2023/10/26 07:39:45;;;;;;;27.08;18.30;;;11.70;71.80;;;;;;5069810;28;20482;-74
2023/10/26 07:42:11;;;;;;;26.33;17.00;;;11.70;72.10;;;;;;5064422;28;20399;-74
2023/10/26 07:44:37;;;;;;;23.83;17.10;;;11.70;72.00;;;;;;5051009;28;20916;-75
2023/10/26 07:47:04;;;;;;;27.20;17.30;;;11.70;72.00;;;;;;5058430;28;20766;-73
2023/10/26 07:49:30;;;;;;;22.77;16.40;;;11.70;70.40;;;;;;5070730;28;20870;-74
2023/10/26 07:51:55;;;;;;;23.38;14.75;;;11.80;69.80;;;;;;5058595;28;20389;-74
2023/10/26 07:54:21;;;;;;;20.35;14.32;;;11.80;66.10;;;;;;5052560;28;20392;-75
2023/10/26 07:56:46;;;;;;;18.73;14.10;;;11.80;64.20;;;;;;5070418;28;20829;-74
2023/10/26 07:59:12;;;;;;;20.87;14.60;;;11.70;64.40;;;;;;5072050;28;20785;-75
2023/10/26 08:01:38;;;;;;;20.93;15.10;;;11.60;67.20;;;;;;5068410;28;20495;-75
2023/10/26 08:04:04;;;;;;;24.70;15.63;;;11.50;69.10;;;;;;5071742;28;20376;-76
2023/10/26 08:06:29;;;;;;;24.27;15.57;;;11.60;70.80;;;;;;5070963;28;20420;-75
2023/10/26 08:08:58;;;;;;;24.57;15.30;;;11.70;70.60;;;;;;5072397;28;20409;-76
2023/10/26 08:11:23;;;;;;;25.27;14.05;;;11.70;69.40;;;;;;5074092;28;20537;-75
2023/10/26 08:13:50;;;;;;;25.48;14.13;;;11.90;66.80;;;;;;5071609;28;20487;-75
2023/10/26 08:16:16;;;;;;;23.38;14.60;;;12.10;63.50;;;;;;5070156;28;20383;-75
2023/10/26 08:18:42;;;;;;;21.83;13.43;;;12.20;63.50;;;;;;5071312;28;20406;-75
2023/10/26 08:21:08;;;;;;;20.55;13.68;;;12.50;60.30;;;;;;5069595;28;20407;-73
2023/10/26 08:23:34;;;;;;;24.23;13.45;;;12.60;59.10;;;;;;5071597;28;20383;-75
2023/10/26 08:26:07;;;;;;;22.10;13.90;;;12.60;57.00;;;;;;5071992;28;20498;-74
2023/10/26 08:28:37;;;;;;;22.23;14.40;;;12.70;56.50;;;;;;5070027;28;20481;-74
2023/10/26 08:31:03;;;;;;;20.27;13.73;;;12.90;55.10;;;;;;5067267;28;20407;-75
2023/10/26 08:33:33;;;;;;;21.10;13.50;;;13.10;53.60;;;;;;5068979;28;20415;-75
2023/10/26 08:35:59;;;;;;;20.15;13.23;;;13.00;54.40;;;;;;5070725;28;20394;-74
2023/10/26 08:38:25;;;;;;;22.33;13.55;;;13.00;53.50;;;;;;5070288;28;20380;-75
2023/10/26 08:40:52;;;;;;;18.48;13.10;;;12.90;51.40;;;;;;5068968;28;20411;-75
2023/10/26 08:43:19;;;;;;;25.77;13.30;;;12.90;51.30;;;;;;5070129;28;20379;-75
2023/10/26 08:45:48;;;;;;;19.53;12.60;;;12.90;52.70;;;;;;5069960;28;20791;-75
2023/10/26 08:48:18;;;;;;;22.45;13.45;;;13.00;51.60;;;;;;5068659;28;20398;-75
2023/10/26 08:50:48;;;;;;;27.23;14.32;;;12.90;53.30;;;;;;5069694;28;20407;-75
2023/10/26 08:53:15;;;;;;;24.42;15.23;;;13.00;53.10;;;;;;5064717;28;20406;-75
2023/10/26 08:55:42;;;;;;;24.13;15.48;;;12.90;55.00;;;;;;5069653;28;20394;-75
2023/10/26 08:58:08;;;;;;;25.42;16.17;;;12.90;55.40;;;;;;5049661;28;20389;-74
2023/10/26 09:00:37;;;;;;;24.83;15.60;;;13.00;54.40;;;;;;5050002;28;20409;-74
2023/10/26 09:03:03;;;;;;;22.50;15.30;;;13.20;53.10;;;;;;5049542;28;20382;-74
2023/10/26 09:05:28;;;;;;;28.98;16.20;;;13.20;52.80;;;;;;5058263;28;20739;-74
2023/10/26 09:07:54;;;;;;;24.20;15.15;;;13.20;53.10;;;;;;5068536;28;20407;-75
2023/10/26 09:10:30;;;;;;;22.25;15.00;;;13.40;52.50;;;;;;5068949;28;20396;-74
2023/10/26 09:13:01;;;;;;;20.30;13.65;;;13.40;50.20;;;;;;5056338;28;20471;-75
2023/10/26 09:15:30;;;;;;;21.83;14.00;;;13.50;50.50;;;;;;5049307;28;20469;-75
2023/10/26 09:17:57;;;;;;;19.50;14.10;;;13.50;49.10;;;;;;5064558;28;20443;-75
2023/10/26 09:20:24;;;;;;;20.55;12.82;;;13.80;47.90;;;;;;5065607;28;20782;-75
2023/10/26 09:22:50;;;;;;;19.33;14.00;;;13.80;46.20;;;;;;5049516;28;20381;-73
2023/10/26 09:25:16;;;;;;;20.80;14.20;;;13.60;47.60;;;;;;5061359;28;20406;-75
2023/10/26 09:27:43;;;;;;;18.63;13.82;;;13.50;48.50;;;;;;5069050;28;20392;-75
2023/10/26 09:30:29;;;;;;;19.88;13.05;;;13.60;47.30;;;;;;5069234;28;20497;-75
2023/10/26 09:32:58;;;;;;;21.83;13.73;;;13.30;47.50;;;;;;5068362;28;20439;-74
2023/10/26 09:35:29;;;;;;;21.67;13.88;;;13.10;50.30;;;;;;5069443;28;20735;-76
2023/10/26 09:37:55;;;;;;;21.67;15.80;;;13.20;48.90;;;;;;5069384;28;20396;-77
2023/10/26 09:40:22;;;;;;;23.88;15.68;;;13.20;49.90;;;;;;5066700;28;20415;-75
2023/10/26 09:42:51;;;;;;;23.63;15.98;;;13.20;49.20;;;;;;5057723;28;20402;-76
2023/10/26 09:45:18;;;;;;;23.65;15.40;;;13.30;48.40;;;;;;5068886;28;20486;-77
2023/10/26 09:47:45;;;;;;;20.60;13.80;;;13.30;47.50;;;;;;5063930;28;20395;-75
2023/10/26 09:50:11;;;;;;;25.23;15.55;;;13.40;48.00;;;;;;5067808;28;20920;-76
2023/10/26 09:52:38;;;;;;;19.73;14.23;;;13.40;49.50;;;;;;5069460;28;20407;-76
2023/10/26 09:55:06;;;;;;;19.93;13.43;;;13.50;47.50;;;;;;5066778;28;20411;-76
2023/10/26 09:57:50;;;;;;;22.02;14.40;;;13.60;48.40;;;;;;5050915;28;20424;-75
2023/10/26 10:00:17;;;;;;;21.13;14.90;;;13.80;48.90;;;;;;5060182;28;20498;-73
2023/10/26 10:02:43;;;;;;;21.35;14.90;;;13.90;47.30;;;;;;5071361;28;20387;-76
2023/10/26 10:06:02;;;;;;;21.02;14.95;;;14.10;47.40;;;;;;5070466;28;20387;-74
2023/10/26 10:08:59;;;;;;;18.98;14.05;;;14.40;45.40;;;;;;5048004;28;20411;-76
2023/10/26 10:11:25;;;;;;;20.50;14.93;;;14.40;42.10;;;;;;5090285;28;20371;-73
2023/10/26 10:13:51;;;;;;;21.55;15.27;;;14.30;43.10;;;;;;5091154;28;20388;-74
2023/10/26 10:16:35;;;;;;;21.05;15.10;;;14.10;43.30;;;;;;5088444;28;20478;-75
2023/10/26 10:19:20;;;;;;;21.17;15.10;;;13.90;44.70;;;;;;5088853;28;20371;-76
2023/10/26 10:21:48;;;;;;;22.97;15.13;;;13.90;45.70;;;;;;5084093;28;20372;-74
2023/10/26 10:24:38;;;;;;;23.25;15.45;;;13.90;45.80;;;;;;5088916;28;20376;-74
2023/10/26 10:27:12;;;;;;;26.58;15.98;;;14.00;44.90;;;;;;5085394;28;20384;-74
2023/10/26 10:29:39;;;;;;;25.83;15.60;;;14.00;45.30;;;;;;5062596;28;20480;-74
2023/10/26 10:32:05;;;;;;;20.75;14.90;;;14.00;45.60;;;;;;5067368;28;20412;-74
2023/10/26 10:34:44;;;;;;;20.70;14.65;;;14.20;45.40;;;;;;5078627;28;20455;-74
2023/10/26 10:37:12;;;;;;;19.00;14.57;;;14.60;44.00;;;;;;5076040;28;20396;-76
2023/10/26 10:39:38;;;;;;;20.63;13.52;;;14.80;42.30;;;;;;5056448;28;20410;-74
2023/10/26 10:42:09;;;;;;;21.88;14.38;;;14.90;41.40;;;;;;5063991;28;20379;-75
2023/10/26 10:44:36;;;;;;;19.10;14.15;;;14.90;41.90;;;;;;5062723;28;20406;-75
2023/10/26 10:47:01;;;;;;;17.52;13.43;;;14.90;41.40;;;;;;5071498;28;20437;-75
2023/10/26 10:49:29;;;;;;;19.90;12.77;;;15.10;40.60;;;;;;5054433;28;20493;-75
2023/10/26 10:51:54;;;;;;;19.50;13.40;;;15.20;39.50;;;;;;5049467;28;20787;-75
2023/10/26 10:54:22;;;;;;;20.83;13.80;;;15.50;38.40;;;;;;5052614;28;20416;-75
2023/10/26 10:56:49;;;;;;;19.33;13.30;;;15.50;39.00;;;;;;5053845;28;20419;-74
2023/10/26 10:59:22;;;;;;;17.95;13.05;;;15.60;36.20;;;;;;5053800;28;20485;-76
2023/10/26 11:01:50;;;;;;;20.03;11.80;;;15.40;36.30;;;;;;5071657;28;20390;-76
2023/10/26 11:04:15;;;;;;;19.38;12.55;;;15.20;38.10;;;;;;5073890;28;20379;-76
2023/10/26 11:06:46;;;;;;;18.23;12.67;;;15.10;38.60;;;;;;5073996;28;20414;-77
2023/10/26 11:09:41;;;;;;;26.15;12.82;;;14.90;39.10;;;;;;5072381;28;20469;-75
2023/10/26 11:12:11;;;;;;;18.95;11.85;;;15.10;38.50;;;;;;5065258;28;20403;-76
2023/10/26 11:14:50;;;;;;;14.73;10.45;;;15.30;37.20;;;;;;5072907;28;20865;-74
2023/10/26 11:17:22;;;;;;;19.25;10.40;;;15.20;37.30;;;;;;5075425;28;20433;-75
2023/10/26 11:19:49;;;;;;;15.88;11.18;;;15.10;38.00;;;;;;5080895;28;20407;-74
2023/10/26 11:22:16;;;;;;;14.60;10.57;;;15.00;38.70;;;;;;5081328;28;20723;-75
2023/10/26 11:24:43;;;;;;;15.20;10.65;;;14.90;39.40;;;;;;5079405;28;20412;-72
2023/10/26 11:27:14;;;;;;;14.50;10.05;;;15.00;39.30;;;;;;5077410;28;20384;-74
2023/10/26 11:29:40;;;;;;;16.05;10.10;;;14.90;38.90;;;;;;5082012;28;20384;-75
2023/10/26 11:32:19;;;;;;;16.88;10.55;;;14.90;39.40;;;;;;5092215;28;20408;-75
2023/10/26 11:35:08;;;;;;;16.75;11.20;;;15.00;40.00;;;;;;5091405;28;20392;-74
2023/10/26 11:37:35;;;;;;;19.98;11.82;;;14.80;40.60;;;;;;5076370;28;20718;-75
2023/10/26 11:40:02;;;;;;;23.83;13.43;;;14.60;42.00;;;;;;5058382;28;20414;-74
2023/10/26 11:42:53;;;;;;;15.43;11.55;;;14.50;43.10;;;;;;5056641;28;20725;-75
2023/10/26 11:45:21;;;;;;;16.80;11.15;;;14.40;44.50;;;;;;5065795;28;20946;-74
2023/10/26 11:47:51;;;;;;;18.02;11.68;;;14.50;42.90;;;;;;5074192;28;20398;-73
2023/10/26 11:50:22;;;;;;;14.90;10.77;;;14.50;41.70;;;;;;5071851;28;20990;-73
2023/10/26 11:52:49;;;;;;;17.13;10.10;;;14.60;41.30;;;;;;5074044;28;20391;-73
2023/10/26 11:55:15;;;;;;;16.63;10.23;;;14.60;40.70;;;;;;5078756;28;20387;-75
2023/10/26 11:57:41;;;;;;;16.20;10.30;;;14.70;40.00;;;;;;5076682;28;20426;-75
2023/10/26 12:00:09;;;;;;;20.17;11.32;;;14.70;40.40;;;;;;5079910;28;20407;-75
2023/10/26 12:02:35;;;;;;;13.35;9.63;;;14.90;38.70;;;;;;5075699;28;20376;-75
2023/10/26 12:05:00;;;;;;;16.83;10.80;;;14.80;39.00;;;;;;5074722;28;20391;-75
2023/10/26 12:07:26;;;;;;;15.53;10.50;;;14.60;39.30;;;;;;5075582;28;20407;-75
2023/10/26 12:09:52;;;;;;;17.57;10.80;;;14.70;40.20;;;;;;5072595;28;20388;-77
2023/10/26 12:12:18;;;;;;;16.65;10.70;;;14.50;39.70;;;;;;5074116;28;20402;-74
2023/10/26 12:14:44;;;;;;;18.00;10.90;;;14.50;40.30;;;;;;5072607;28;20384;-74
2023/10/26 12:17:10;;;;;;;18.53;10.97;;;14.50;40.10;;;;;;5071890;28;20467;-74
2023/10/26 12:19:36;;;;;;;18.90;12.10;;;14.40;40.30;;;;;;5073956;28;20417;-74
2023/10/26 12:22:01;;;;;;;16.60;10.85;;;14.50;40.00;;;;;;5074514;28;20380;-75
2023/10/26 12:24:29;;;;;;;18.20;11.02;;;14.60;39.90;;;;;;5074553;28;20468;-73
2023/10/26 12:26:57;;;;;;;18.25;11.30;;;14.60;40.00;;;;;;5073592;28;20376;-75
2023/10/26 12:29:23;;;;;;;18.77;10.98;;;14.80;39.90;;;;;;5072428;28;20380;-74